sensor_id;sensor_type;location;lat;lon;timestamp;P1;durP1;ratioP1;P2;durP2;ratioP2
54921;SDS011;40824;45.116;21.296;2023-06-14T20:10:16;9.32;;;4.68;;
54921;SDS011;40824;45.116;21.296;2023-06-14T20:12:42;7.10;;;4.30;;
54921;SDS011;40824;45.116;21.296;2023-06-14T20:15:09;11.77;;;4.60;;
54921;SDS011;40824;45.116;21.296;2023-06-14T20:17:38;13.45;;;4.72;;
54921;SDS011;40824;45.116;21.296;2023-06-14T20:20:04;8.45;;;4.53;;
54921;SDS011;40824;45.116;21.296;2023-06-14T20:22:31;8.35;;;5.10;;
54921;SDS011;40824;45.116;21.296;2023-06-14T20:25:05;11.45;;;4.57;;
54921;SDS011;40824;45.116;21.296;2023-06-14T20:27:31;6.38;;;4.72;;
54921;SDS011;40824;45.116;21.296;2023-06-14T20:30:01;8.70;;;4.95;;
54921;SDS011;40824;45.116;21.296;2023-06-14T20:32:27;8.52;;;5.20;;
54921;SDS011;40824;45.116;21.296;2023-06-14T20:34:54;7.95;;;4.68;;
54921;SDS011;40824;45.116;21.296;2023-06-14T20:37:20;13.50;;;4.80;;
54921;SDS011;40824;45.116;21.296;2023-06-14T20:39:52;12.20;;;4.70;;
54921;SDS011;40824;45.116;21.296;2023-06-14T20:42:19;6.97;;;5.00;;
54921;SDS011;40824;45.116;21.296;2023-06-14T20:44:45;7.50;;;4.65;;
54921;SDS011;40824;45.116;21.296;2023-06-14T20:47:11;8.52;;;4.60;;
54921;SDS011;40824;45.116;21.296;2023-06-14T20:49:40;8.73;;;5.50;;
54921;SDS011;40824;45.116;21.296;2023-06-14T20:52:08;6.70;;;5.03;;
54921;SDS011;40824;45.116;21.296;2023-06-14T20:54:37;12.50;;;5.85;;
54921;SDS011;40824;45.116;21.296;2023-06-14T20:57:05;9.35;;;5.53;;
54921;SDS011;40824;45.116;21.296;2023-06-14T20:59:31;11.43;;;6.22;;
54921;SDS011;40824;45.116;21.296;2023-06-14T21:01:57;8.52;;;5.50;;
54921;SDS011;40824;45.116;21.296;2023-06-14T21:04:24;8.75;;;5.55;;
54921;SDS011;40824;45.116;21.296;2023-06-14T21:06:50;7.65;;;5.65;;
54921;SDS011;40824;45.116;21.296;2023-06-14T21:09:17;9.20;;;5.63;;
54921;SDS011;40824;45.116;21.296;2023-06-14T21:11:43;6.70;;;4.95;;
54921;SDS011;40824;45.116;21.296;2023-06-14T21:14:10;7.47;;;5.70;;
54921;SDS011;40824;45.116;21.296;2023-06-14T21:16:37;9.05;;;5.38;;
54921;SDS011;40824;45.116;21.296;2023-06-14T21:19:03;7.28;;;5.05;;
54921;SDS011;40824;45.116;21.296;2023-06-14T21:21:29;6.18;;;4.82;;
54921;SDS011;40824;45.116;21.296;2023-06-14T21:23:56;9.63;;;5.47;;
54921;SDS011;40824;45.116;21.296;2023-06-14T21:26:22;7.25;;;4.75;;
54921;SDS011;40824;45.116;21.296;2023-06-14T21:28:48;8.98;;;4.57;;
54921;SDS011;40824;45.116;21.296;2023-06-14T21:31:14;6.45;;;4.88;;
54921;SDS011;40824;45.116;21.296;2023-06-14T21:33:41;8.15;;;5.10;;
54921;SDS011;40824;45.116;21.296;2023-06-14T21:36:07;10.48;;;5.18;;
54921;SDS011;40824;45.116;21.296;2023-06-14T21:38:33;7.65;;;4.65;;
54921;SDS011;40824;45.116;21.296;2023-06-14T21:41:00;10.32;;;5.43;;
54921;SDS011;40824;45.116;21.296;2023-06-14T21:43:26;6.38;;;4.68;;
54921;SDS011;40824;45.116;21.296;2023-06-14T21:45:52;6.72;;;4.65;;
54921;SDS011;40824;45.116;21.296;2023-06-14T21:48:18;7.20;;;4.70;;
54921;SDS011;40824;45.116;21.296;2023-06-14T21:50:45;9.15;;;5.25;;
54921;SDS011;40824;45.116;21.296;2023-06-14T21:53:11;11.85;;;6.15;;
54921;SDS011;40824;45.116;21.296;2023-06-14T21:55:37;11.25;;;6.55;;
54921;SDS011;40824;45.116;21.296;2023-06-14T21:58:05;12.45;;;6.43;;
54921;SDS011;40824;45.116;21.296;2023-06-14T22:00:32;16.38;;;6.68;;
54921;SDS011;40824;45.116;21.296;2023-06-14T22:02:58;12.57;;;6.10;;
54921;SDS011;40824;45.116;21.296;2023-06-14T22:05:24;8.15;;;5.88;;
54921;SDS011;40824;45.116;21.296;2023-06-14T22:07:50;11.18;;;5.70;;
54921;SDS011;40824;45.116;21.296;2023-06-14T22:10:16;12.77;;;6.68;;
54921;SDS011;40824;45.116;21.296;2023-06-14T22:12:44;15.10;;;7.70;;
54921;SDS011;40824;45.116;21.296;2023-06-14T22:15:10;14.60;;;7.63;;
54921;SDS011;40824;45.116;21.296;2023-06-14T22:17:37;18.35;;;8.25;;
54921;SDS011;40824;45.116;21.296;2023-06-14T22:20:06;13.13;;;6.80;;
54921;SDS011;40824;45.116;21.296;2023-06-14T22:22:37;10.15;;;6.22;;
54921;SDS011;40824;45.116;21.296;2023-06-14T22:25:05;11.13;;;6.75;;
54921;SDS011;40824;45.116;21.296;2023-06-14T22:27:32;14.00;;;7.53;;
54921;SDS011;40824;45.116;21.296;2023-06-14T22:30:02;12.55;;;6.38;;
54921;SDS011;40824;45.116;21.296;2023-06-14T22:32:28;9.05;;;6.47;;
54921;SDS011;40824;45.116;21.296;2023-06-14T22:34:57;8.75;;;4.95;;
54921;SDS011;40824;45.116;21.296;2023-06-14T22:37:27;10.68;;;5.68;;
54921;SDS011;40824;45.116;21.296;2023-06-14T22:40:01;8.50;;;5.57;;
54921;SDS011;40824;45.116;21.296;2023-06-14T22:42:29;9.05;;;5.20;;
54921;SDS011;40824;45.116;21.296;2023-06-14T22:44:56;7.90;;;5.55;;
54921;SDS011;40824;45.116;21.296;2023-06-14T22:47:25;9.98;;;5.45;;
54921;SDS011;40824;45.116;21.296;2023-06-14T22:49:51;8.23;;;5.45;;
54921;SDS011;40824;45.116;21.296;2023-06-14T22:52:19;6.93;;;5.20;;
54921;SDS011;40824;45.116;21.296;2023-06-14T22:54:51;7.05;;;5.47;;
54921;SDS011;40824;45.116;21.296;2023-06-14T22:57:18;7.20;;;5.00;;
54921;SDS011;40824;45.116;21.296;2023-06-14T22:59:45;8.95;;;5.32;;
54921;SDS011;40824;45.116;21.296;2023-06-14T23:02:11;11.32;;;5.75;;
54921;SDS011;40824;45.116;21.296;2023-06-14T23:04:38;9.20;;;5.30;;
54921;SDS011;40824;45.116;21.296;2023-06-14T23:07:06;7.05;;;5.30;;
54921;SDS011;40824;45.116;21.296;2023-06-14T23:09:33;6.93;;;5.13;;
54921;SDS011;40824;45.116;21.296;2023-06-14T23:12:00;6.13;;;4.45;;
54921;SDS011;40824;45.116;21.296;2023-06-14T23:14:26;8.25;;;5.45;;
54921;SDS011;40824;45.116;21.296;2023-06-14T23:16:53;7.00;;;5.22;;
54921;SDS011;40824;45.116;21.296;2023-06-14T23:19:23;9.00;;;5.60;;
54921;SDS011;40824;45.116;21.296;2023-06-14T23:21:50;7.57;;;5.20;;
54921;SDS011;40824;45.116;21.296;2023-06-14T23:24:24;6.80;;;4.80;;
54921;SDS011;40824;45.116;21.296;2023-06-14T23:26:52;7.60;;;5.22;;
54921;SDS011;40824;45.116;21.296;2023-06-14T23:29:23;9.07;;;4.80;;
54921;SDS011;40824;45.116;21.296;2023-06-14T23:31:52;6.22;;;4.97;;
54921;SDS011;40824;45.116;21.296;2023-06-14T23:34:19;10.50;;;5.38;;
54921;SDS011;40824;45.116;21.296;2023-06-14T23:36:45;7.15;;;5.35;;
54921;SDS011;40824;45.116;21.296;2023-06-14T23:39:12;10.15;;;6.00;;
54921;SDS011;40824;45.116;21.296;2023-06-14T23:41:38;7.57;;;4.88;;
54921;SDS011;40824;45.116;21.296;2023-06-14T23:44:05;6.93;;;5.65;;
54921;SDS011;40824;45.116;21.296;2023-06-14T23:46:32;6.65;;;4.70;;
54921;SDS011;40824;45.116;21.296;2023-06-14T23:48:58;7.57;;;5.35;;
54921;SDS011;40824;45.116;21.296;2023-06-14T23:51:25;6.78;;;5.40;;
54921;SDS011;40824;45.116;21.296;2023-06-14T23:53:52;8.23;;;5.40;;
54921;SDS011;40824;45.116;21.296;2023-06-14T23:56:20;10.13;;;5.65;;
54921;SDS011;40824;45.116;21.296;2023-06-14T23:58:49;6.57;;;5.13;;
